sensor_id;sensor_type;location;lat;lon;timestamp;P1;durP1;ratioP1;P2;durP2;ratioP2
6422;SDS011;3244;42.708;23.288;2023-02-28T00:00:19;15.98;;;11.45;;
6422;SDS011;3244;42.708;23.288;2023-02-28T00:02:47;15.85;;;11.95;;
6422;SDS011;3244;42.708;23.288;2023-02-28T00:05:15;15.90;;;11.38;;
6422;SDS011;3244;42.708;23.288;2023-02-28T00:07:43;13.73;;;10.35;;
6422;SDS011;3244;42.708;23.288;2023-02-28T00:10:11;16.60;;;12.10;;
6422;SDS011;3244;42.708;23.288;2023-02-28T00:12:39;17.40;;;11.88;;
6422;SDS011;3244;42.708;23.288;2023-02-28T00:15:08;15.95;;;11.60;;
6422;SDS011;3244;42.708;23.288;2023-02-28T00:17:37;18.25;;;11.98;;
6422;SDS011;3244;42.708;23.288;2023-02-28T00:20:04;15.88;;;12.00;;
6422;SDS011;3244;42.708;23.288;2023-02-28T00:22:33;17.23;;;12.13;;
6422;SDS011;3244;42.708;23.288;2023-02-28T00:25:00;13.18;;;10.93;;
6422;SDS011;3244;42.708;23.288;2023-02-28T00:27:27;21.27;;;13.38;;
6422;SDS011;3244;42.708;23.288;2023-02-28T00:29:54;17.08;;;13.85;;
6422;SDS011;3244;42.708;23.288;2023-02-28T00:32:22;18.38;;;13.02;;
6422;SDS011;3244;42.708;23.288;2023-02-28T00:34:48;17.02;;;12.13;;
6422;SDS011;3244;42.708;23.288;2023-02-28T00:37:15;19.73;;;12.95;;
6422;SDS011;3244;42.708;23.288;2023-02-28T00:39:42;18.17;;;12.82;;
6422;SDS011;3244;42.708;23.288;2023-02-28T00:42:09;21.05;;;13.73;;
6422;SDS011;3244;42.708;23.288;2023-02-28T00:44:36;25.02;;;14.27;;
6422;SDS011;3244;42.708;23.288;2023-02-28T00:47:02;21.30;;;13.82;;
6422;SDS011;3244;42.708;23.288;2023-02-28T00:49:31;20.30;;;12.77;;
6422;SDS011;3244;42.708;23.288;2023-02-28T00:51:58;22.27;;;13.40;;
6422;SDS011;3244;42.708;23.288;2023-02-28T00:54:24;19.50;;;13.50;;
6422;SDS011;3244;42.708;23.288;2023-02-28T00:56:51;18.85;;;12.68;;
6422;SDS011;3244;42.708;23.288;2023-02-28T00:59:18;21.83;;;13.48;;
6422;SDS011;3244;42.708;23.288;2023-02-28T01:01:45;19.25;;;13.50;;
6422;SDS011;3244;42.708;23.288;2023-02-28T01:04:12;24.75;;;13.18;;
6422;SDS011;3244;42.708;23.288;2023-02-28T01:06:41;23.40;;;14.05;;
6422;SDS011;3244;42.708;23.288;2023-02-28T01:09:08;20.95;;;15.50;;
6422;SDS011;3244;42.708;23.288;2023-02-28T01:11:36;21.13;;;14.48;;
6422;SDS011;3244;42.708;23.288;2023-02-28T01:14:04;20.63;;;13.13;;
6422;SDS011;3244;42.708;23.288;2023-02-28T01:16:31;22.63;;;13.95;;
6422;SDS011;3244;42.708;23.288;2023-02-28T01:18:57;19.95;;;13.20;;
6422;SDS011;3244;42.708;23.288;2023-02-28T01:21:24;18.48;;;13.48;;
6422;SDS011;3244;42.708;23.288;2023-02-28T01:23:52;18.05;;;13.45;;
6422;SDS011;3244;42.708;23.288;2023-02-28T01:26:24;19.02;;;13.07;;
6422;SDS011;3244;42.708;23.288;2023-02-28T01:28:51;20.60;;;13.60;;
6422;SDS011;3244;42.708;23.288;2023-02-28T01:31:19;20.83;;;14.45;;
6422;SDS011;3244;42.708;23.288;2023-02-28T01:33:46;21.67;;;13.10;;
6422;SDS011;3244;42.708;23.288;2023-02-28T01:36:14;17.65;;;11.88;;
6422;SDS011;3244;42.708;23.288;2023-02-28T01:38:42;18.13;;;11.82;;
6422;SDS011;3244;42.708;23.288;2023-02-28T01:41:14;18.67;;;12.43;;
6422;SDS011;3244;42.708;23.288;2023-02-28T01:43:52;16.95;;;13.43;;
6422;SDS011;3244;42.708;23.288;2023-02-28T01:46:22;20.15;;;13.40;;
6422;SDS011;3244;42.708;23.288;2023-02-28T01:48:50;20.35;;;12.95;;
6422;SDS011;3244;42.708;23.288;2023-02-28T01:51:20;18.80;;;12.73;;
6422;SDS011;3244;42.708;23.288;2023-02-28T01:53:51;19.67;;;13.30;;
6422;SDS011;3244;42.708;23.288;2023-02-28T01:56:24;17.42;;;11.88;;
6422;SDS011;3244;42.708;23.288;2023-02-28T01:58:54;17.48;;;12.52;;
6422;SDS011;3244;42.708;23.288;2023-02-28T02:01:22;19.60;;;13.07;;
6422;SDS011;3244;42.708;23.288;2023-02-28T02:03:52;20.60;;;13.68;;
6422;SDS011;3244;42.708;23.288;2023-02-28T02:06:21;20.90;;;13.18;;
6422;SDS011;3244;42.708;23.288;2023-02-28T02:08:48;18.65;;;12.43;;
6422;SDS011;3244;42.708;23.288;2023-02-28T02:11:17;21.58;;;14.40;;
6422;SDS011;3244;42.708;23.288;2023-02-28T02:13:58;23.30;;;13.00;;
6422;SDS011;3244;42.708;23.288;2023-02-28T02:16:40;27.98;;;14.35;;
6422;SDS011;3244;42.708;23.288;2023-02-28T02:19:28;27.38;;;15.65;;
6422;SDS011;3244;42.708;23.288;2023-02-28T02:22:17;24.25;;;14.57;;
6422;SDS011;3244;42.708;23.288;2023-02-28T02:25:11;27.77;;;15.73;;
6422;SDS011;3244;42.708;23.288;2023-02-28T02:27:56;26.63;;;17.00;;
6422;SDS011;3244;42.708;23.288;2023-02-28T02:30:57;28.38;;;14.65;;
6422;SDS011;3244;42.708;23.288;2023-02-28T02:33:37;31.13;;;16.65;;
6422;SDS011;3244;42.708;23.288;2023-02-28T02:36:21;26.38;;;16.27;;
6422;SDS011;3244;42.708;23.288;2023-02-28T02:38:51;28.92;;;15.88;;
6422;SDS011;3244;42.708;23.288;2023-02-28T02:41:24;27.20;;;15.18;;
6422;SDS011;3244;42.708;23.288;2023-02-28T02:43:56;22.75;;;14.00;;
6422;SDS011;3244;42.708;23.288;2023-02-28T02:46:28;22.10;;;14.85;;
6422;SDS011;3244;42.708;23.288;2023-02-28T02:48:59;28.38;;;15.30;;
6422;SDS011;3244;42.708;23.288;2023-02-28T02:51:31;25.67;;;15.75;;
6422;SDS011;3244;42.708;23.288;2023-02-28T02:54:00;26.83;;;15.45;;
6422;SDS011;3244;42.708;23.288;2023-02-28T02:56:32;27.40;;;14.38;;
6422;SDS011;3244;42.708;23.288;2023-02-28T02:59:02;25.55;;;15.65;;
6422;SDS011;3244;42.708;23.288;2023-02-28T03:01:34;26.13;;;15.02;;
6422;SDS011;3244;42.708;23.288;2023-02-28T03:04:03;25.30;;;14.85;;
6422;SDS011;3244;42.708;23.288;2023-02-28T03:06:33;28.38;;;15.70;;
6422;SDS011;3244;42.708;23.288;2023-02-28T03:09:00;22.75;;;14.68;;
6422;SDS011;3244;42.708;23.288;2023-02-28T03:11:27;24.20;;;14.85;;
6422;SDS011;3244;42.708;23.288;2023-02-28T03:14:01;21.27;;;13.73;;
6422;SDS011;3244;42.708;23.288;2023-02-28T03:16:49;28.02;;;15.27;;
6422;SDS011;3244;42.708;23.288;2023-02-28T03:19:43;22.60;;;14.18;;
6422;SDS011;3244;42.708;23.288;2023-02-28T03:25:20;26.83;;;16.90;;
6422;SDS011;3244;42.708;23.288;2023-02-28T03:27:55;38.97;;;18.83;;
6422;SDS011;3244;42.708;23.288;2023-02-28T03:30:31;37.05;;;19.35;;
6422;SDS011;3244;42.708;23.288;2023-02-28T03:33:06;34.67;;;18.90;;
6422;SDS011;3244;42.708;23.288;2023-02-28T03:35:38;31.52;;;19.50;;
6422;SDS011;3244;42.708;23.288;2023-02-28T03:38:09;29.48;;;18.05;;
6422;SDS011;3244;42.708;23.288;2023-02-28T03:40:43;33.03;;;19.48;;
6422;SDS011;3244;42.708;23.288;2023-02-28T03:43:15;33.08;;;18.52;;
6422;SDS011;3244;42.708;23.288;2023-02-28T03:45:48;31.90;;;18.10;;
6422;SDS011;3244;42.708;23.288;2023-02-28T03:48:18;29.95;;;15.35;;
6422;SDS011;3244;42.708;23.288;2023-02-28T03:50:51;24.98;;;15.68;;
6422;SDS011;3244;42.708;23.288;2023-02-28T03:53:22;20.25;;;14.07;;
6422;SDS011;3244;42.708;23.288;2023-02-28T03:55:56;20.85;;;14.50;;
6422;SDS011;3244;42.708;23.288;2023-02-28T03:58:27;24.17;;;13.57;;
6422;SDS011;3244;42.708;23.288;2023-02-28T04:01:00;26.20;;;15.10;;
6422;SDS011;3244;42.708;23.288;2023-02-28T04:03:33;25.95;;;14.30;;
6422;SDS011;3244;42.708;23.288;2023-02-28T04:06:01;25.55;;;15.15;;
6422;SDS011;3244;42.708;23.288;2023-02-28T04:08:28;23.15;;;14.20;;
6422;SDS011;3244;42.708;23.288;2023-02-28T04:10:57;26.92;;;15.75;;
6422;SDS011;3244;42.708;23.288;2023-02-28T04:13:29;27.00;;;14.70;;
6422;SDS011;3244;42.708;23.288;2023-02-28T04:15:56;22.85;;;14.20;;
6422;SDS011;3244;42.708;23.288;2023-02-28T04:18:22;25.40;;;14.82;;
6422;SDS011;3244;42.708;23.288;2023-02-28T04:20:49;26.98;;;15.60;;
6422;SDS011;3244;42.708;23.288;2023-02-28T04:23:16;23.05;;;14.50;;
6422;SDS011;3244;42.708;23.288;2023-02-28T04:25:43;23.98;;;14.90;;
6422;SDS011;3244;42.708;23.288;2023-02-28T04:28:11;25.08;;;14.85;;
6422;SDS011;3244;42.708;23.288;2023-02-28T04:30:37;23.02;;;14.13;;
6422;SDS011;3244;42.708;23.288;2023-02-28T04:33:05;21.73;;;13.82;;
6422;SDS011;3244;42.708;23.288;2023-02-28T04:35:32;19.85;;;12.93;;
6422;SDS011;3244;42.708;23.288;2023-02-28T04:37:59;26.23;;;14.02;;
6422;SDS011;3244;42.708;23.288;2023-02-28T04:40:25;22.23;;;13.50;;
6422;SDS011;3244;42.708;23.288;2023-02-28T04:42:52;17.42;;;13.20;;
6422;SDS011;3244;42.708;23.288;2023-02-28T04:45:20;20.67;;;13.23;;
6422;SDS011;3244;42.708;23.288;2023-02-28T04:47:47;23.60;;;15.18;;
6422;SDS011;3244;42.708;23.288;2023-02-28T04:50:14;26.00;;;16.17;;
6422;SDS011;3244;42.708;23.288;2023-02-28T04:52:41;28.15;;;16.08;;
6422;SDS011;3244;42.708;23.288;2023-02-28T04:55:08;30.65;;;17.33;;
6422;SDS011;3244;42.708;23.288;2023-02-28T04:57:35;30.65;;;17.02;;
6422;SDS011;3244;42.708;23.288;2023-02-28T05:00:02;34.90;;;17.95;;
6422;SDS011;3244;42.708;23.288;2023-02-28T05:02:37;33.75;;;17.27;;
6422;SDS011;3244;42.708;23.288;2023-02-28T05:05:04;33.03;;;17.35;;
6422;SDS011;3244;42.708;23.288;2023-02-28T05:07:32;31.58;;;17.00;;
6422;SDS011;3244;42.708;23.288;2023-02-28T05:09:58;30.05;;;18.27;;
6422;SDS011;3244;42.708;23.288;2023-02-28T05:12:25;30.38;;;18.38;;
6422;SDS011;3244;42.708;23.288;2023-02-28T05:14:52;34.65;;;17.20;;
6422;SDS011;3244;42.708;23.288;2023-02-28T05:17:18;44.55;;;23.73;;
6422;SDS011;3244;42.708;23.288;2023-02-28T05:19:46;46.65;;;26.02;;
6422;SDS011;3244;42.708;23.288;2023-02-28T05:22:14;41.35;;;19.33;;
6422;SDS011;3244;42.708;23.288;2023-02-28T05:24:42;35.97;;;19.90;;
6422;SDS011;3244;42.708;23.288;2023-02-28T05:27:09;32.60;;;18.48;;
6422;SDS011;3244;42.708;23.288;2023-02-28T05:29:36;36.58;;;19.73;;
6422;SDS011;3244;42.708;23.288;2023-02-28T05:32:10;34.95;;;17.85;;
6422;SDS011;3244;42.708;23.288;2023-02-28T05:34:38;37.05;;;19.95;;
6422;SDS011;3244;42.708;23.288;2023-02-28T05:37:07;36.95;;;20.63;;
6422;SDS011;3244;42.708;23.288;2023-02-28T05:39:37;47.75;;;22.77;;
6422;SDS011;3244;42.708;23.288;2023-02-28T05:42:04;41.25;;;22.27;;
6422;SDS011;3244;42.708;23.288;2023-02-28T05:44:31;36.15;;;22.25;;
6422;SDS011;3244;42.708;23.288;2023-02-28T05:46:58;46.20;;;22.00;;
6422;SDS011;3244;42.708;23.288;2023-02-28T05:49:25;41.00;;;21.75;;
6422;SDS011;3244;42.708;23.288;2023-02-28T05:51:52;34.15;;;19.20;;
6422;SDS011;3244;42.708;23.288;2023-02-28T05:54:20;35.88;;;20.83;;
6422;SDS011;3244;42.708;23.288;2023-02-28T05:56:47;35.42;;;20.02;;
6422;SDS011;3244;42.708;23.288;2023-02-28T05:59:13;31.63;;;19.85;;
6422;SDS011;3244;42.708;23.288;2023-02-28T06:01:41;37.22;;;21.77;;
6422;SDS011;3244;42.708;23.288;2023-02-28T06:04:13;40.42;;;21.98;;
6422;SDS011;3244;42.708;23.288;2023-02-28T06:06:42;40.13;;;22.13;;
6422;SDS011;3244;42.708;23.288;2023-02-28T06:09:09;42.80;;;24.60;;
6422;SDS011;3244;42.708;23.288;2023-02-28T06:11:38;47.70;;;24.52;;
6422;SDS011;3244;42.708;23.288;2023-02-28T06:14:05;45.67;;;24.23;;
6422;SDS011;3244;42.708;23.288;2023-02-28T06:16:33;41.30;;;24.92;;
6422;SDS011;3244;42.708;23.288;2023-02-28T06:19:00;40.60;;;23.15;;
6422;SDS011;3244;42.708;23.288;2023-02-28T06:21:30;48.95;;;24.88;;
6422;SDS011;3244;42.708;23.288;2023-02-28T06:23:57;56.03;;;28.00;;
6422;SDS011;3244;42.708;23.288;2023-02-28T06:26:24;54.00;;;27.45;;
6422;SDS011;3244;42.708;23.288;2023-02-28T06:28:53;47.45;;;25.20;;
6422;SDS011;3244;42.708;23.288;2023-02-28T06:31:20;51.33;;;24.80;;
6422;SDS011;3244;42.708;23.288;2023-02-28T06:33:47;52.92;;;27.23;;
6422;SDS011;3244;42.708;23.288;2023-02-28T06:36:15;64.35;;;29.48;;
6422;SDS011;3244;42.708;23.288;2023-02-28T06:38:42;56.15;;;30.67;;
6422;SDS011;3244;42.708;23.288;2023-02-28T06:41:10;54.95;;;26.35;;
6422;SDS011;3244;42.708;23.288;2023-02-28T06:43:38;61.05;;;31.05;;
6422;SDS011;3244;42.708;23.288;2023-02-28T06:46:09;59.28;;;31.63;;
6422;SDS011;3244;42.708;23.288;2023-02-28T06:48:38;64.18;;;30.73;;
6422;SDS011;3244;42.708;23.288;2023-02-28T06:51:05;63.05;;;31.77;;
6422;SDS011;3244;42.708;23.288;2023-02-28T06:53:33;62.83;;;32.40;;
6422;SDS011;3244;42.708;23.288;2023-02-28T06:56:03;64.03;;;31.17;;
6422;SDS011;3244;42.708;23.288;2023-02-28T06:58:31;66.15;;;32.33;;
6422;SDS011;3244;42.708;23.288;2023-02-28T07:00:58;63.28;;;31.27;;
6422;SDS011;3244;42.708;23.288;2023-02-28T07:03:26;59.30;;;31.77;;
6422;SDS011;3244;42.708;23.288;2023-02-28T07:05:53;49.45;;;26.23;;
6422;SDS011;3244;42.708;23.288;2023-02-28T07:08:21;47.35;;;24.30;;
6422;SDS011;3244;42.708;23.288;2023-02-28T07:10:51;49.17;;;23.90;;
6422;SDS011;3244;42.708;23.288;2023-02-28T07:13:18;38.58;;;22.95;;
6422;SDS011;3244;42.708;23.288;2023-02-28T07:15:52;43.38;;;22.95;;
6422;SDS011;3244;42.708;23.288;2023-02-28T07:18:19;50.42;;;23.38;;
6422;SDS011;3244;42.708;23.288;2023-02-28T07:20:47;47.05;;;24.42;;
6422;SDS011;3244;42.708;23.288;2023-02-28T07:23:14;43.80;;;24.92;;
6422;SDS011;3244;42.708;23.288;2023-02-28T07:25:41;49.28;;;27.15;;
6422;SDS011;3244;42.708;23.288;2023-02-28T07:28:07;53.63;;;26.80;;
6422;SDS011;3244;42.708;23.288;2023-02-28T07:30:34;50.08;;;25.98;;
6422;SDS011;3244;42.708;23.288;2023-02-28T07:33:01;43.20;;;25.33;;
6422;SDS011;3244;42.708;23.288;2023-02-28T07:35:28;43.38;;;24.40;;
6422;SDS011;3244;42.708;23.288;2023-02-28T07:37:58;53.25;;;27.33;;
6422;SDS011;3244;42.708;23.288;2023-02-28T07:40:25;52.90;;;26.92;;
6422;SDS011;3244;42.708;23.288;2023-02-28T07:42:52;45.22;;;24.88;;
6422;SDS011;3244;42.708;23.288;2023-02-28T07:45:19;41.47;;;22.80;;
6422;SDS011;3244;42.708;23.288;2023-02-28T07:47:47;42.20;;;23.13;;
6422;SDS011;3244;42.708;23.288;2023-02-28T07:50:14;40.63;;;23.10;;
6422;SDS011;3244;42.708;23.288;2023-02-28T07:52:41;44.70;;;23.98;;
6422;SDS011;3244;42.708;23.288;2023-02-28T07:55:10;37.08;;;22.65;;
6422;SDS011;3244;42.708;23.288;2023-02-28T07:57:38;38.85;;;21.48;;
6422;SDS011;3244;42.708;23.288;2023-02-28T08:00:07;37.70;;;23.15;;
6422;SDS011;3244;42.708;23.288;2023-02-28T08:02:35;42.35;;;23.73;;
6422;SDS011;3244;42.708;23.288;2023-02-28T08:05:03;38.33;;;22.13;;
6422;SDS011;3244;42.708;23.288;2023-02-28T08:07:30;40.63;;;22.30;;
6422;SDS011;3244;42.708;23.288;2023-02-28T08:09:57;39.53;;;22.55;;
6422;SDS011;3244;42.708;23.288;2023-02-28T08:12:25;38.83;;;23.23;;
6422;SDS011;3244;42.708;23.288;2023-02-28T08:14:52;41.25;;;23.92;;
6422;SDS011;3244;42.708;23.288;2023-02-28T08:17:19;40.10;;;23.48;;
6422;SDS011;3244;42.708;23.288;2023-02-28T08:19:45;45.38;;;24.02;;
6422;SDS011;3244;42.708;23.288;2023-02-28T08:22:12;51.33;;;26.85;;
6422;SDS011;3244;42.708;23.288;2023-02-28T08:24:40;44.92;;;24.98;;
6422;SDS011;3244;42.708;23.288;2023-02-28T08:27:08;41.58;;;24.65;;
6422;SDS011;3244;42.708;23.288;2023-02-28T08:29:37;49.22;;;25.88;;
6422;SDS011;3244;42.708;23.288;2023-02-28T08:32:05;47.92;;;26.90;;
6422;SDS011;3244;42.708;23.288;2023-02-28T08:34:32;45.90;;;28.85;;
6422;SDS011;3244;42.708;23.288;2023-02-28T08:36:59;50.85;;;29.05;;
6422;SDS011;3244;42.708;23.288;2023-02-28T08:39:26;53.38;;;28.27;;
6422;SDS011;3244;42.708;23.288;2023-02-28T08:41:52;56.15;;;30.55;;
6422;SDS011;3244;42.708;23.288;2023-02-28T08:44:19;52.00;;;30.60;;
6422;SDS011;3244;42.708;23.288;2023-02-28T08:46:47;54.80;;;28.55;;
6422;SDS011;3244;42.708;23.288;2023-02-28T08:49:14;50.25;;;28.30;;
6422;SDS011;3244;42.708;23.288;2023-02-28T08:51:41;52.03;;;28.73;;
6422;SDS011;3244;42.708;23.288;2023-02-28T08:54:08;47.58;;;25.23;;
6422;SDS011;3244;42.708;23.288;2023-02-28T08:56:37;43.15;;;25.83;;
6422;SDS011;3244;42.708;23.288;2023-02-28T08:59:04;39.38;;;23.85;;
6422;SDS011;3244;42.708;23.288;2023-02-28T09:01:31;43.08;;;26.92;;
6422;SDS011;3244;42.708;23.288;2023-02-28T09:03:59;47.40;;;26.73;;
6422;SDS011;3244;42.708;23.288;2023-02-28T09:06:27;43.67;;;26.83;;
6422;SDS011;3244;42.708;23.288;2023-02-28T09:08:55;46.63;;;25.50;;
6422;SDS011;3244;42.708;23.288;2023-02-28T09:11:24;39.67;;;24.70;;
6422;SDS011;3244;42.708;23.288;2023-02-28T09:13:51;43.83;;;24.75;;
6422;SDS011;3244;42.708;23.288;2023-02-28T09:16:18;43.97;;;25.98;;
6422;SDS011;3244;42.708;23.288;2023-02-28T09:18:45;49.75;;;27.05;;
6422;SDS011;3244;42.708;23.288;2023-02-28T09:21:14;50.20;;;27.13;;
6422;SDS011;3244;42.708;23.288;2023-02-28T09:23:43;44.80;;;25.80;;
6422;SDS011;3244;42.708;23.288;2023-02-28T09:26:13;43.05;;;24.75;;
6422;SDS011;3244;42.708;23.288;2023-02-28T09:28:40;51.38;;;25.48;;
6422;SDS011;3244;42.708;23.288;2023-02-28T09:31:10;44.45;;;25.25;;
6422;SDS011;3244;42.708;23.288;2023-02-28T09:33:38;47.92;;;26.27;;
6422;SDS011;3244;42.708;23.288;2023-02-28T09:36:05;46.70;;;27.13;;
6422;SDS011;3244;42.708;23.288;2023-02-28T09:38:34;48.28;;;27.33;;
6422;SDS011;3244;42.708;23.288;2023-02-28T09:41:01;56.47;;;28.88;;
6422;SDS011;3244;42.708;23.288;2023-02-28T09:43:32;46.00;;;26.00;;
6422;SDS011;3244;42.708;23.288;2023-02-28T09:46:08;46.13;;;28.05;;
6422;SDS011;3244;42.708;23.288;2023-02-28T09:48:46;44.22;;;27.52;;
6422;SDS011;3244;42.708;23.288;2023-02-28T09:51:18;49.70;;;28.83;;
6422;SDS011;3244;42.708;23.288;2023-02-28T09:54:02;47.13;;;29.08;;
6422;SDS011;3244;42.708;23.288;2023-02-28T09:56:31;43.95;;;29.13;;
6422;SDS011;3244;42.708;23.288;2023-02-28T09:59:02;54.58;;;29.88;;
6422;SDS011;3244;42.708;23.288;2023-02-28T10:01:39;50.72;;;29.00;;
6422;SDS011;3244;42.708;23.288;2023-02-28T10:04:11;52.45;;;29.15;;
6422;SDS011;3244;42.708;23.288;2023-02-28T10:06:50;44.55;;;27.83;;
6422;SDS011;3244;42.708;23.288;2023-02-28T10:09:21;50.55;;;29.15;;
6422;SDS011;3244;42.708;23.288;2023-02-28T10:11:51;53.15;;;28.48;;
6422;SDS011;3244;42.708;23.288;2023-02-28T10:14:21;44.50;;;27.42;;
6422;SDS011;3244;42.708;23.288;2023-02-28T10:16:50;44.95;;;26.20;;
6422;SDS011;3244;42.708;23.288;2023-02-28T10:19:22;41.10;;;25.65;;
6422;SDS011;3244;42.708;23.288;2023-02-28T10:21:54;35.33;;;21.60;;
6422;SDS011;3244;42.708;23.288;2023-02-28T10:24:26;34.88;;;19.45;;
6422;SDS011;3244;42.708;23.288;2023-02-28T10:26:59;29.20;;;16.17;;
6422;SDS011;3244;42.708;23.288;2023-02-28T10:29:27;26.17;;;13.20;;
6422;SDS011;3244;42.708;23.288;2023-02-28T10:31:58;29.08;;;13.15;;
6422;SDS011;3244;42.708;23.288;2023-02-28T10:34:28;30.63;;;12.38;;
6422;SDS011;3244;42.708;23.288;2023-02-28T10:36:55;23.17;;;11.07;;
6422;SDS011;3244;42.708;23.288;2023-02-28T10:39:40;19.85;;;11.25;;
6422;SDS011;3244;42.708;23.288;2023-02-28T10:45:07;26.35;;;11.77;;
6422;SDS011;3244;42.708;23.288;2023-02-28T10:47:48;17.83;;;10.05;;
6422;SDS011;3244;42.708;23.288;2023-02-28T10:50:28;29.70;;;11.23;;
6422;SDS011;3244;42.708;23.288;2023-02-28T10:53:05;18.02;;;10.20;;
6422;SDS011;3244;42.708;23.288;2023-02-28T10:55:42;27.65;;;11.80;;
6422;SDS011;3244;42.708;23.288;2023-02-28T10:58:21;22.45;;;10.13;;
6422;SDS011;3244;42.708;23.288;2023-02-28T11:00:50;19.85;;;10.18;;
6422;SDS011;3244;42.708;23.288;2023-02-28T11:03:25;20.60;;;10.20;;
6422;SDS011;3244;42.708;23.288;2023-02-28T11:05:57;22.65;;;10.27;;
6422;SDS011;3244;42.708;23.288;2023-02-28T11:08:24;21.92;;;10.63;;
6422;SDS011;3244;42.708;23.288;2023-02-28T11:10:55;26.20;;;12.07;;
6422;SDS011;3244;42.708;23.288;2023-02-28T11:13:28;22.67;;;11.65;;
6422;SDS011;3244;42.708;23.288;2023-02-28T11:15:59;18.77;;;11.98;;
6422;SDS011;3244;42.708;23.288;2023-02-28T11:18:29;14.75;;;8.75;;
6422;SDS011;3244;42.708;23.288;2023-02-28T11:20:58;25.52;;;13.05;;
6422;SDS011;3244;42.708;23.288;2023-02-28T11:23:28;31.33;;;11.38;;
6422;SDS011;3244;42.708;23.288;2023-02-28T11:25:59;18.77;;;12.73;;
6422;SDS011;3244;42.708;23.288;2023-02-28T11:28:28;27.77;;;13.55;;
6422;SDS011;3244;42.708;23.288;2023-02-28T11:31:01;18.83;;;9.38;;
6422;SDS011;3244;42.708;23.288;2023-02-28T11:33:31;25.63;;;11.45;;
6422;SDS011;3244;42.708;23.288;2023-02-28T11:36:00;29.38;;;12.25;;
6422;SDS011;3244;42.708;23.288;2023-02-28T11:38:30;25.70;;;9.90;;
6422;SDS011;3244;42.708;23.288;2023-02-28T11:41:05;30.27;;;10.88;;
6422;SDS011;3244;42.708;23.288;2023-02-28T11:43:50;22.25;;;11.40;;
6422;SDS011;3244;42.708;23.288;2023-02-28T11:46:29;17.38;;;10.98;;
6422;SDS011;3244;42.708;23.288;2023-02-28T11:49:05;20.60;;;11.73;;
6422;SDS011;3244;42.708;23.288;2023-02-28T11:51:47;27.80;;;12.00;;
6422;SDS011;3244;42.708;23.288;2023-02-28T11:57:25;25.73;;;10.55;;
6422;SDS011;3244;42.708;23.288;2023-02-28T12:00:03;23.48;;;10.60;;
6422;SDS011;3244;42.708;23.288;2023-02-28T12:02:43;22.58;;;10.23;;
6422;SDS011;3244;42.708;23.288;2023-02-28T12:05:24;20.13;;;12.18;;
6422;SDS011;3244;42.708;23.288;2023-02-28T12:08:04;28.73;;;11.27;;
6422;SDS011;3244;42.708;23.288;2023-02-28T12:10:43;15.80;;;9.85;;
6422;SDS011;3244;42.708;23.288;2023-02-28T12:13:18;22.77;;;11.93;;
6422;SDS011;3244;42.708;23.288;2023-02-28T12:15:58;23.40;;;10.65;;
6422;SDS011;3244;42.708;23.288;2023-02-28T12:18:49;24.20;;;11.35;;
6422;SDS011;3244;42.708;23.288;2023-02-28T12:21:25;31.98;;;11.23;;
6422;SDS011;3244;42.708;23.288;2023-02-28T12:24:02;25.77;;;11.10;;
6422;SDS011;3244;42.708;23.288;2023-02-28T12:26:42;26.17;;;9.68;;
6422;SDS011;3244;42.708;23.288;2023-02-28T12:29:14;26.90;;;12.25;;
6422;SDS011;3244;42.708;23.288;2023-02-28T12:31:46;19.80;;;8.57;;
6422;SDS011;3244;42.708;23.288;2023-02-28T12:34:19;32.13;;;10.43;;
6422;SDS011;3244;42.708;23.288;2023-02-28T12:36:48;19.70;;;10.43;;
6422;SDS011;3244;42.708;23.288;2023-02-28T12:39:18;20.58;;;10.73;;
6422;SDS011;3244;42.708;23.288;2023-02-28T12:41:51;25.67;;;10.25;;
6422;SDS011;3244;42.708;23.288;2023-02-28T12:44:23;17.17;;;9.27;;
6422;SDS011;3244;42.708;23.288;2023-02-28T12:46:58;17.10;;;10.60;;
6422;SDS011;3244;42.708;23.288;2023-02-28T12:49:30;22.02;;;9.98;;
6422;SDS011;3244;42.708;23.288;2023-02-28T12:52:00;19.45;;;9.48;;
6422;SDS011;3244;42.708;23.288;2023-02-28T12:54:30;24.75;;;10.13;;
6422;SDS011;3244;42.708;23.288;2023-02-28T12:57:06;18.33;;;9.70;;
6422;SDS011;3244;42.708;23.288;2023-02-28T12:59:41;24.70;;;10.60;;
6422;SDS011;3244;42.708;23.288;2023-02-28T13:02:20;16.25;;;8.27;;
6422;SDS011;3244;42.708;23.288;2023-02-28T13:08:20;28.67;;;9.07;;
6422;SDS011;3244;42.708;23.288;2023-02-28T13:11:23;15.25;;;8.80;;
6422;SDS011;3244;42.708;23.288;2023-02-28T13:13:56;19.55;;;9.25;;
6422;SDS011;3244;42.708;23.288;2023-02-28T13:16:26;19.02;;;9.57;;
6422;SDS011;3244;42.708;23.288;2023-02-28T13:18:53;25.75;;;10.98;;
6422;SDS011;3244;42.708;23.288;2023-02-28T13:21:41;23.98;;;10.77;;
6422;SDS011;3244;42.708;23.288;2023-02-28T13:24:09;29.63;;;9.90;;
6422;SDS011;3244;42.708;23.288;2023-02-28T13:29:57;22.63;;;9.10;;
6422;SDS011;3244;42.708;23.288;2023-02-28T13:32:35;19.08;;;10.48;;
6422;SDS011;3244;42.708;23.288;2023-02-28T13:38:12;18.80;;;9.43;;
6422;SDS011;3244;42.708;23.288;2023-02-28T13:40:43;24.05;;;10.35;;
6422;SDS011;3244;42.708;23.288;2023-02-28T13:43:10;18.13;;;9.18;;
6422;SDS011;3244;42.708;23.288;2023-02-28T13:45:37;24.58;;;11.32;;
6422;SDS011;3244;42.708;23.288;2023-02-28T13:48:14;17.70;;;9.88;;
6422;SDS011;3244;42.708;23.288;2023-02-28T13:50:42;22.00;;;9.68;;
6422;SDS011;3244;42.708;23.288;2023-02-28T13:53:21;19.30;;;9.27;;
6422;SDS011;3244;42.708;23.288;2023-02-28T13:55:58;19.55;;;9.88;;
6422;SDS011;3244;42.708;23.288;2023-02-28T13:58:41;22.45;;;9.80;;
6422;SDS011;3244;42.708;23.288;2023-02-28T14:07:17;21.15;;;9.65;;
6422;SDS011;3244;42.708;23.288;2023-02-28T14:09:47;20.45;;;9.23;;
6422;SDS011;3244;42.708;23.288;2023-02-28T14:18:13;24.48;;;8.93;;
6422;SDS011;3244;42.708;23.288;2023-02-28T14:20:45;12.63;;;7.32;;
6422;SDS011;3244;42.708;23.288;2023-02-28T14:23:17;19.10;;;9.05;;
6422;SDS011;3244;42.708;23.288;2023-02-28T14:26:00;18.17;;;9.43;;
6422;SDS011;3244;42.708;23.288;2023-02-28T14:28:38;31.67;;;10.18;;
6422;SDS011;3244;42.708;23.288;2023-02-28T14:31:23;15.27;;;9.82;;
6422;SDS011;3244;42.708;23.288;2023-02-28T14:34:12;18.05;;;9.00;;
6422;SDS011;3244;42.708;23.288;2023-02-28T14:36:53;23.65;;;8.93;;
6422;SDS011;3244;42.708;23.288;2023-02-28T14:39:25;20.58;;;9.25;;
6422;SDS011;3244;42.708;23.288;2023-02-28T14:41:56;19.10;;;10.13;;
6422;SDS011;3244;42.708;23.288;2023-02-28T14:44:24;23.10;;;10.75;;
6422;SDS011;3244;42.708;23.288;2023-02-28T14:46:53;24.73;;;10.65;;
6422;SDS011;3244;42.708;23.288;2023-02-28T14:49:23;24.85;;;8.90;;
6422;SDS011;3244;42.708;23.288;2023-02-28T14:52:02;21.90;;;11.25;;
6422;SDS011;3244;42.708;23.288;2023-02-28T14:54:34;19.60;;;9.75;;
6422;SDS011;3244;42.708;23.288;2023-02-28T14:57:01;17.27;;;8.70;;
6422;SDS011;3244;42.708;23.288;2023-02-28T14:59:30;24.98;;;8.88;;
6422;SDS011;3244;42.708;23.288;2023-02-28T15:02:13;24.10;;;9.40;;
6422;SDS011;3244;42.708;23.288;2023-02-28T15:04:42;18.15;;;10.35;;
6422;SDS011;3244;42.708;23.288;2023-02-28T15:07:10;12.52;;;8.27;;
6422;SDS011;3244;42.708;23.288;2023-02-28T15:09:41;21.05;;;7.65;;
6422;SDS011;3244;42.708;23.288;2023-02-28T15:12:07;16.27;;;9.73;;
6422;SDS011;3244;42.708;23.288;2023-02-28T15:14:39;22.70;;;9.40;;
6422;SDS011;3244;42.708;23.288;2023-02-28T15:17:11;21.15;;;10.48;;
6422;SDS011;3244;42.708;23.288;2023-02-28T15:19:48;14.82;;;9.02;;
6422;SDS011;3244;42.708;23.288;2023-02-28T15:22:20;16.85;;;8.38;;
6422;SDS011;3244;42.708;23.288;2023-02-28T15:24:54;21.30;;;9.77;;
6422;SDS011;3244;42.708;23.288;2023-02-28T15:27:22;26.35;;;9.68;;